createdAt,value
2019-04-30T00:01:18.824Z,9.13
2019-04-30T00:02:16.286Z,9.05
2019-04-30T00:04:20.445Z,9.02
2019-04-30T00:05:20.688Z,9.17
2019-04-30T00:07:24.921Z,9.20
2019-04-30T00:08:25.840Z,9.18
2019-04-30T00:10:36.027Z,9.20
2019-04-30T00:11:29.504Z,9.21
2019-04-30T00:13:35.726Z,9.13
2019-04-30T00:14:40.087Z,9.01
2019-04-30T00:16:39.872Z,9.14
2019-04-30T00:17:38.317Z,9.14
2019-04-30T00:19:42.476Z,9.21
2019-04-30T00:20:44.750Z,9.04
2019-04-30T00:22:50.331Z,9.05
2019-04-30T00:23:47.141Z,9.05
2019-04-30T00:25:51.307Z,9.04
2019-04-30T00:26:52.512Z,9.05
2019-04-30T00:28:55.694Z,8.91
2019-04-30T00:29:55.943Z,9.04
2019-04-30T00:31:49.041Z,8.92
2019-04-30T00:32:49.264Z,8.91
2019-04-30T00:34:53.421Z,8.94
2019-04-30T00:35:55.129Z,8.89
2019-04-30T00:38:00.216Z,8.91
2019-04-30T00:38:58.058Z,8.94
2019-04-30T00:41:06.822Z,9.10
2019-04-30T00:42:02.449Z,9.04
2019-04-30T00:44:07.633Z,9.05
2019-04-30T00:45:09.910Z,9.01
2019-04-30T00:47:12.045Z,9.11
2019-04-30T00:48:12.281Z,9.10
2019-04-30T00:50:16.438Z,8.99
2019-04-30T00:51:21.219Z,9.04
2019-04-30T00:53:20.844Z,9.05
2019-04-30T00:54:22.548Z,9.11
2019-04-30T00:56:28.188Z,9.17
2019-04-30T00:57:26.526Z,9.21
2019-04-30T00:59:30.658Z,9.14
2019-04-30T01:00:30.891Z,9.11
2019-04-30T01:02:35.755Z,9.02
2019-04-30T01:03:35.324Z,9.01
2019-04-30T01:05:43.547Z,8.95
2019-04-30T01:06:39.690Z,9.01
2019-04-30T01:08:46.107Z,9.05
2019-04-30T01:09:49.570Z,9.10
2019-04-30T01:11:39.762Z,9.10
2019-04-30T01:12:44.228Z,9.14
2019-04-30T01:14:41.596Z,9.04
2019-04-30T01:15:43.927Z,9.11
2019-04-30T01:17:50.929Z,9.04
2019-04-30T01:18:46.231Z,8.94
2019-04-30T01:20:50.390Z,8.94
2019-04-30T01:21:50.971Z,8.87
2019-04-30T01:23:54.900Z,8.84
2019-04-30T01:24:55.046Z,8.84
2019-04-30T01:27:02.108Z,8.79
2019-04-30T01:27:59.450Z,8.81
2019-04-30T01:30:03.606Z,8.71
2019-04-30T01:31:03.843Z,8.68
2019-04-30T01:33:09.154Z,8.65
2019-04-30T01:34:12.350Z,8.63
2019-04-30T01:36:13.446Z,8.65
2019-04-30T01:37:12.644Z,8.79
2019-04-30T01:39:16.817Z,8.76
2019-04-30T01:40:18.835Z,8.76
2019-04-30T01:42:21.227Z,8.77
2019-04-30T01:43:30.585Z,8.92
2019-04-30T01:45:28.201Z,8.86
2019-04-30T01:46:25.871Z,8.83
2019-04-30T01:48:30.048Z,8.89
2019-04-30T01:49:41.733Z,8.87
2019-04-30T01:51:23.355Z,8.91
2019-04-30T01:52:23.613Z,8.95
2019-04-30T01:54:29.165Z,8.83
2019-04-30T01:55:29.429Z,8.83
2019-04-30T01:57:32.170Z,8.87
2019-04-30T01:58:33.459Z,8.79
2019-04-30T02:00:36.575Z,8.79
2019-04-30T02:01:38.913Z,8.94
2019-04-30T02:03:40.990Z,8.79
2019-04-30T02:04:41.237Z,8.84
2019-04-30T02:06:45.393Z,8.76
2019-04-30T02:07:46.053Z,8.76
2019-04-30T02:09:49.777Z,8.79
2019-04-30T02:10:51.381Z,8.68
2019-04-30T02:12:54.374Z,8.65
2019-04-30T02:13:54.380Z,8.63
2019-04-30T02:15:59.230Z,8.56
2019-04-30T02:16:59.426Z,8.55
2019-04-30T02:19:02.951Z,8.43
2019-04-30T02:20:03.188Z,8.41
2019-04-30T02:21:56.263Z,8.29
2019-04-30T02:22:58.447Z,8.34
2019-04-30T02:25:00.693Z,8.33
2019-04-30T02:26:00.905Z,8.25
2019-04-30T02:28:05.054Z,8.01
2019-04-30T02:29:05.295Z,8.02
2019-04-30T02:31:09.489Z,7.90
2019-04-30T02:32:10.261Z,7.97
2019-04-30T02:34:13.906Z,7.77
2019-04-30T02:35:14.127Z,7.75
2019-04-30T02:37:21.059Z,7.75
2019-04-30T02:38:20.341Z,7.75
2019-04-30T02:40:23.704Z,7.55
2019-04-30T02:41:23.940Z,7.60
2019-04-30T02:43:30.043Z,7.64
2019-04-30T02:44:29.317Z,7.57
2019-04-30T02:46:33.534Z,7.48
2019-04-30T02:47:33.768Z,7.45
2019-04-30T02:49:39.790Z,7.43
2019-04-30T02:50:39.277Z,7.43
2019-04-30T02:52:42.309Z,7.46
2019-04-30T02:53:42.543Z,7.37
2019-04-30T02:55:46.720Z,7.27
2019-04-30T02:56:46.992Z,7.37
2019-04-30T02:58:51.125Z,7.42
2019-04-30T02:59:51.360Z,7.27
2019-04-30T03:01:44.506Z,7.30
2019-04-30T03:02:44.711Z,7.46
2019-04-30T03:04:50.259Z,7.43
2019-04-30T03:05:49.724Z,7.34
2019-04-30T03:07:53.670Z,7.45
2019-04-30T03:08:53.479Z,7.37
2019-04-30T03:10:59.903Z,7.46
2019-04-30T03:12:00.139Z,7.50
2019-04-30T03:14:02.054Z,7.42
2019-04-30T03:15:02.332Z,7.39
2019-04-30T03:17:06.444Z,7.28
2019-04-30T03:18:06.676Z,7.37
2019-04-30T03:20:20.222Z,7.25
2019-04-30T03:21:11.079Z,7.30
2019-04-30T03:23:15.244Z,7.05
2019-04-30T03:24:15.469Z,7.12
2019-04-30T03:26:20.101Z,7.03
2019-04-30T03:27:20.642Z,6.92
2019-04-30T03:29:24.246Z,6.80
2019-04-30T03:30:24.276Z,6.81
2019-04-30T03:32:31.610Z,6.69
2019-04-30T03:33:32.530Z,6.54
2019-04-30T03:35:32.956Z,6.64
2019-04-30T03:36:33.085Z,6.55
2019-04-30T03:38:39.672Z,6.41
2019-04-30T03:39:39.858Z,6.49
2019-04-30T03:41:33.442Z,6.37
2019-04-30T03:42:30.820Z,6.31
2019-04-30T03:44:34.984Z,6.28
2019-04-30T03:45:35.221Z,6.36
2019-04-30T03:47:42.849Z,6.18
2019-04-30T03:48:39.739Z,6.19
2019-04-30T03:50:53.470Z,6.06
2019-04-30T03:51:45.041Z,6.06
2019-04-30T03:53:50.139Z,6.04
2019-04-30T03:54:49.642Z,6.03
2019-04-30T03:56:53.608Z,5.99
2019-04-30T03:57:53.846Z,5.90
2019-04-30T03:59:59.422Z,5.93
2019-04-30T04:01:00.357Z,5.83
2019-04-30T04:03:02.414Z,5.75
2019-04-30T04:04:02.678Z,5.68
2019-04-30T04:06:09.257Z,5.63
2019-04-30T04:07:07.092Z,5.56
2019-04-30T04:09:11.239Z,5.43
2019-04-30T04:10:11.506Z,5.46
2019-04-30T04:12:04.579Z,5.43
2019-04-30T04:13:04.815Z,5.40
2019-04-30T04:15:10.397Z,5.36
2019-04-30T04:16:09.771Z,5.39
2019-04-30T04:18:13.365Z,5.39
2019-04-30T04:19:13.591Z,5.30
2019-04-30T04:21:20.679Z,5.21
2019-04-30T04:22:20.673Z,5.22
2019-04-30T04:24:23.163Z,5.36
2019-04-30T04:25:23.391Z,5.39
2019-04-30T04:27:30.187Z,5.39
2019-04-30T04:28:29.822Z,5.42
2019-04-30T04:30:32.982Z,5.46
2019-04-30T04:31:33.214Z,5.49
2019-04-30T04:33:39.551Z,5.51
2019-04-30T04:34:39.904Z,5.53
2019-04-30T04:36:43.311Z,5.64
2019-04-30T04:37:42.011Z,5.72
2019-04-30T04:39:46.146Z,5.71
2019-04-30T04:40:46.377Z,5.83
2019-04-30T04:42:51.560Z,5.83
2019-04-30T04:43:51.856Z,5.90
2019-04-30T04:45:59.304Z,5.94
2019-04-30T04:47:00.012Z,6.08
2019-04-30T04:49:01.368Z,6.01
2019-04-30T04:50:01.610Z,5.97
2019-04-30T04:51:54.711Z,6.06
2019-04-30T04:52:54.936Z,5.97
2019-04-30T04:55:00.320Z,6.03
2019-04-30T04:55:59.912Z,5.99
2019-04-30T04:58:03.517Z,5.99
2019-04-30T04:59:03.749Z,6.08
2019-04-30T05:01:11.691Z,6.08
2019-04-30T05:02:09.887Z,6.21
2019-04-30T05:04:13.322Z,6.25
2019-04-30T05:05:13.557Z,6.37
2019-04-30T05:07:19.575Z,6.37
2019-04-30T05:08:18.561Z,6.34
2019-04-30T05:10:23.302Z,6.49
2019-04-30T05:11:23.536Z,6.48
2019-04-30T05:13:29.051Z,6.59
2019-04-30T05:14:28.851Z,6.67
2019-04-30T05:16:32.599Z,6.74
2019-04-30T05:17:32.834Z,6.84
2019-04-30T05:19:38.544Z,6.92
2019-04-30T05:20:39.881Z,6.94
2019-04-30T05:22:41.923Z,6.99
2019-04-30T05:23:42.765Z,6.89
2019-04-30T05:25:46.300Z,7.06
2019-04-30T05:26:48.589Z,7.12
2019-04-30T05:28:52.810Z,7.21
2019-04-30T05:29:50.956Z,7.12
2019-04-30T05:31:44.020Z,7.24
2019-04-30T05:32:44.259Z,7.32
2019-04-30T05:34:49.695Z,7.32
2019-04-30T05:35:49.585Z,7.34
2019-04-30T05:37:52.839Z,7.32
2019-04-30T05:38:53.078Z,7.35
2019-04-30T05:40:57.229Z,7.32
2019-04-30T05:41:58.939Z,7.34
2019-04-30T05:44:01.642Z,7.35
2019-04-30T05:45:01.891Z,7.30
2019-04-30T05:47:07.064Z,7.39
2019-04-30T05:48:08.863Z,7.27
2019-04-30T05:50:11.450Z,7.37
2019-04-30T05:51:11.689Z,7.43
2019-04-30T05:53:15.875Z,7.52
2019-04-30T05:54:16.108Z,7.48
2019-04-30T05:56:21.270Z,7.46
2019-04-30T05:57:21.585Z,7.45
2019-04-30T05:59:25.757Z,7.40
2019-04-30T06:00:25.994Z,7.52
2019-04-30T06:02:33.759Z,7.75
2019-04-30T06:03:33.205Z,7.80
2019-04-30T06:05:34.558Z,7.86
2019-04-30T06:06:34.794Z,7.82
2019-04-30T06:08:39.317Z,7.97
2019-04-30T06:09:39.207Z,8.01
2019-04-30T06:11:32.318Z,8.05
2019-04-30T06:12:32.519Z,8.11
2019-04-30T06:14:46.667Z,8.10
2019-04-30T06:15:38.974Z,8.16
2019-04-30T06:17:41.141Z,8.28
2019-04-30T06:18:42.340Z,8.29
2019-04-30T06:20:45.536Z,8.38
2019-04-30T06:21:45.781Z,8.33
2019-04-30T06:23:49.950Z,8.48
2019-04-30T06:24:50.190Z,8.52
2019-04-30T06:26:55.338Z,8.70
2019-04-30T06:27:55.577Z,8.65
2019-04-30T06:29:59.755Z,8.89
2019-04-30T06:30:59.990Z,8.87
2019-04-30T06:33:04.162Z,8.86
2019-04-30T06:34:04.402Z,8.92
2019-04-30T06:36:10.978Z,9.05
2019-04-30T06:37:09.634Z,9.05
2019-04-30T06:39:12.972Z,9.11
2019-04-30T06:40:13.216Z,9.28
2019-04-30T06:42:10.184Z,9.26
2019-04-30T06:43:06.531Z,9.39
2019-04-30T06:45:10.733Z,9.53
2019-04-30T06:46:10.984Z,9.61
2019-04-30T06:48:15.156Z,10.81
2019-04-30T06:49:15.394Z,11.73
2019-04-30T06:51:19.552Z,14.02
2019-04-30T06:52:23.039Z,14.45
2019-04-30T06:54:23.961Z,15.16
2019-04-30T06:55:24.199Z,15.68
2019-04-30T06:57:29.515Z,16.46
2019-04-30T06:58:29.193Z,16.68
2019-04-30T07:00:35.533Z,16.38
2019-04-30T07:01:33.020Z,17.01
2019-04-30T07:03:38.781Z,16.57
2019-04-30T07:04:37.438Z,16.66
2019-04-30T07:06:45.109Z,16.86
2019-04-30T07:07:41.873Z,16.73
2019-04-30T07:09:53.247Z,17.04
2019-04-30T07:10:55.012Z,17.26
2019-04-30T07:12:50.432Z,17.54
2019-04-30T07:13:52.303Z,17.77
2019-04-30T07:15:54.861Z,17.95
2019-04-30T07:16:55.090Z,17.77
2019-04-30T07:18:59.276Z,18.08
2019-04-30T07:19:59.799Z,18.54
2019-04-30T07:21:52.608Z,18.88
2019-04-30T07:23:00.197Z,18.70
2019-04-30T07:24:57.039Z,18.85
2019-04-30T07:25:58.991Z,19.11
2019-04-30T07:28:01.457Z,19.14
2019-04-30T07:29:02.537Z,19.10
2019-04-30T07:31:13.169Z,19.46
2019-04-30T07:32:06.132Z,19.55
2019-04-30T07:34:11.348Z,19.78
2019-04-30T07:35:11.587Z,19.94
2019-04-30T07:37:21.088Z,19.65
2019-04-30T07:38:15.996Z,19.74
2019-04-30T07:40:20.187Z,19.88
2019-04-30T07:41:20.432Z,19.96
2019-04-30T07:43:24.598Z,20.06
2019-04-30T07:44:33.835Z,20.24
2019-04-30T07:46:30.052Z,20.69
2019-04-30T07:47:29.688Z,20.13
2019-04-30T07:49:46.999Z,20.84
2019-04-30T07:50:34.384Z,20.82
2019-04-30T07:52:57.651Z,21.04
2019-04-30T07:53:40.384Z,21.24
2019-04-30T07:55:43.328Z,20.82
2019-04-30T07:56:43.592Z,20.50
2019-04-30T07:58:50.254Z,20.43
2019-04-30T07:59:49.863Z,20.11
2019-04-30T08:02:00.508Z,20.50
2019-04-30T08:02:43.614Z,20.88
2019-04-30T08:04:45.560Z,20.99
2019-04-30T08:05:45.821Z,21.21
2019-04-30T08:07:50.105Z,22.05
2019-04-30T08:08:51.653Z,21.75
2019-04-30T08:10:54.415Z,22.05
2019-04-30T08:11:54.668Z,22.07
2019-04-30T08:13:59.344Z,21.94
2019-04-30T08:14:59.550Z,22.07
2019-04-30T08:17:03.285Z,21.98
2019-04-30T08:18:05.951Z,22.27
2019-04-30T08:20:08.757Z,22.27
2019-04-30T08:21:09.512Z,22.37
2019-04-30T08:23:20.126Z,22.75
2019-04-30T08:24:12.400Z,22.88
2019-04-30T08:26:18.591Z,22.61
2019-04-30T08:27:16.841Z,22.77
2019-04-30T08:29:21.019Z,22.65
2019-04-30T08:30:26.455Z,22.35
2019-04-30T08:32:25.470Z,22.90
2019-04-30T08:33:25.716Z,23.48
2019-04-30T08:35:29.915Z,24.00
2019-04-30T08:36:32.958Z,23.97
2019-04-30T08:38:34.341Z,23.88
2019-04-30T08:39:34.593Z,24.08
2019-04-30T08:41:29.280Z,22.42
2019-04-30T08:42:31.711Z,22.67
2019-04-30T08:44:32.143Z,23.20
2019-04-30T08:45:34.788Z,23.73
2019-04-30T08:47:36.589Z,24.10
2019-04-30T08:48:49.961Z,24.13
2019-04-30T08:50:41.116Z,23.83
2019-04-30T08:51:41.634Z,23.95
2019-04-30T08:53:45.465Z,24.06
2019-04-30T08:54:45.715Z,24.49
2019-04-30T08:56:50.374Z,23.65
2019-04-30T08:57:50.229Z,23.69
2019-04-30T08:59:54.344Z,22.95
2019-04-30T09:00:54.597Z,22.60
2019-04-30T09:02:59.343Z,21.74
2019-04-30T09:03:59.699Z,21.72
2019-04-30T09:06:03.242Z,21.62
2019-04-30T09:07:03.493Z,21.94
2019-04-30T09:09:10.681Z,21.71
2019-04-30T09:10:09.261Z,20.76
2019-04-30T09:12:01.049Z,20.42
2019-04-30T09:13:01.299Z,20.50
2019-04-30T09:15:05.477Z,20.16
2019-04-30T09:16:05.725Z,20.99
2019-04-30T09:18:12.540Z,21.74
2019-04-30T09:19:10.181Z,22.42
2019-04-30T09:21:14.384Z,23.01
2019-04-30T09:22:15.306Z,22.62
2019-04-30T09:24:19.177Z,21.29
2019-04-30T09:25:19.553Z,21.38
2019-04-30T09:27:23.266Z,21.24
2019-04-30T09:28:23.512Z,21.03
2019-04-30T09:30:29.806Z,21.79
2019-04-30T09:31:29.666Z,22.68
2019-04-30T09:33:32.146Z,24.31
2019-04-30T09:34:32.396Z,24.42
2019-04-30T09:36:36.589Z,24.34
2019-04-30T09:37:36.845Z,24.77
2019-04-30T09:39:41.034Z,23.17
2019-04-30T09:40:41.739Z,22.49
2019-04-30T09:42:45.486Z,21.69
2019-04-30T09:43:45.741Z,21.88
2019-04-30T09:45:49.914Z,22.22
2019-04-30T09:46:50.166Z,22.70
2019-04-30T09:48:54.368Z,23.07
2019-04-30T09:49:54.618Z,22.77
2019-04-30T09:51:49.603Z,22.15
2019-04-30T09:52:49.684Z,23.01
2019-04-30T09:54:52.432Z,22.79
2019-04-30T09:55:52.434Z,22.14
2019-04-30T09:57:58.735Z,21.90
2019-04-30T09:58:56.887Z,22.02
2019-04-30T10:01:01.077Z,23.17
2019-04-30T10:02:01.327Z,23.20
2019-04-30T10:04:06.358Z,24.21
2019-04-30T10:05:06.792Z,24.49
2019-04-30T10:07:10.485Z,24.78
2019-04-30T10:08:10.727Z,24.62
2019-04-30T10:10:14.909Z,24.88
2019-04-30T10:11:15.161Z,24.62
2019-04-30T10:13:19.453Z,24.18
2019-04-30T10:14:19.709Z,23.97
2019-04-30T10:16:23.871Z,24.55
2019-04-30T10:17:24.125Z,25.28
2019-04-30T10:19:29.258Z,26.06
2019-04-30T10:20:28.579Z,26.20
2019-04-30T10:22:32.786Z,26.55
2019-04-30T10:23:33.031Z,26.73
2019-04-30T10:25:37.204Z,26.36
2019-04-30T10:26:37.459Z,26.63
2019-04-30T10:28:41.666Z,26.97
2019-04-30T10:29:41.917Z,27.02
2019-04-30T10:31:36.064Z,27.06
2019-04-30T10:32:36.315Z,26.69
2019-04-30T10:34:40.501Z,26.29
2019-04-30T10:35:40.758Z,25.97
2019-04-30T10:37:44.969Z,24.50
2019-04-30T10:38:45.222Z,24.45
2019-04-30T10:40:49.430Z,26.15
2019-04-30T10:41:49.671Z,26.33
2019-04-30T10:43:53.875Z,27.55
2019-04-30T10:44:54.129Z,27.28
2019-04-30T10:46:59.465Z,27.69
2019-04-30T10:47:59.606Z,27.54
2019-04-30T10:50:03.784Z,26.47
2019-04-30T10:51:04.037Z,25.55
2019-04-30T10:53:09.147Z,26.55
2019-04-30T10:54:08.898Z,26.60
2019-04-30T10:56:12.809Z,26.55
2019-04-30T10:57:12.936Z,27.00
2019-04-30T10:59:17.150Z,27.57
2019-04-30T11:00:18.630Z,27.74
2019-04-30T11:02:21.620Z,27.84
2019-04-30T11:03:23.084Z,28.09
2019-04-30T11:05:26.055Z,27.63
2019-04-30T11:06:26.312Z,27.34
2019-04-30T11:08:30.525Z,27.69
2019-04-30T11:09:30.996Z,27.24
2019-04-30T11:11:24.393Z,25.75
2019-04-30T11:12:24.647Z,25.30
2019-04-30T11:14:28.858Z,24.93
2019-04-30T11:15:29.324Z,25.25
2019-04-30T11:17:33.449Z,26.25
2019-04-30T11:18:33.732Z,26.52
2019-04-30T11:20:39.721Z,27.09
2019-04-30T11:21:38.713Z,27.44
2019-04-30T11:23:42.878Z,25.52
2019-04-30T11:24:56.647Z,25.17
2019-04-30T11:26:49.538Z,25.83
2019-04-30T11:27:50.154Z,26.43
2019-04-30T11:29:51.808Z,27.12
2019-04-30T11:30:51.994Z,27.65
2019-04-30T11:32:56.259Z,27.96
2019-04-30T11:33:56.339Z,27.92
2019-04-30T11:36:02.985Z,27.03
2019-04-30T11:37:00.773Z,27.22
2019-04-30T11:39:04.978Z,27.75
2019-04-30T11:40:05.233Z,27.57
2019-04-30T11:41:58.346Z,27.37
2019-04-30T11:42:58.600Z,27.69
2019-04-30T11:45:02.804Z,26.50
2019-04-30T11:46:03.056Z,27.29
2019-04-30T11:48:08.984Z,28.00
2019-04-30T11:49:09.563Z,27.99
2019-04-30T11:51:11.737Z,28.07
2019-04-30T11:52:11.989Z,27.43
2019-04-30T11:54:16.200Z,28.02
2019-04-30T11:55:16.453Z,28.17
2019-04-30T11:57:20.637Z,27.69
2019-04-30T11:58:21.998Z,28.18
2019-04-30T12:00:25.093Z,28.00
2019-04-30T12:01:25.349Z,26.82
2019-04-30T12:03:30.398Z,27.07
2019-04-30T12:04:30.014Z,27.14
2019-04-30T12:06:33.982Z,27.39
2019-04-30T12:07:34.238Z,26.57
2019-04-30T12:09:38.629Z,26.54
2019-04-30T12:10:39.202Z,26.92
2019-04-30T12:12:42.881Z,27.00
2019-04-30T12:13:43.137Z,27.51
2019-04-30T12:15:50.022Z,27.92
2019-04-30T12:16:47.617Z,27.47
2019-04-30T12:18:51.824Z,27.92
2019-04-30T12:19:52.077Z,27.94
2019-04-30T12:21:45.193Z,27.88
2019-04-30T12:22:45.452Z,27.46
2019-04-30T12:25:02.056Z,27.41
2019-04-30T12:25:49.917Z,27.04
2019-04-30T12:27:55.113Z,27.25
2019-04-30T12:28:55.366Z,27.69
2019-04-30T12:30:59.574Z,27.88
2019-04-30T12:31:59.829Z,27.47
2019-04-30T12:34:04.037Z,28.14
2019-04-30T12:35:04.292Z,27.84
2019-04-30T12:37:10.632Z,27.87
2019-04-30T12:38:08.893Z,28.11
2019-04-30T12:40:25.784Z,28.11
2019-04-30T12:41:13.238Z,28.18
2019-04-30T12:43:17.424Z,27.46
2019-04-30T12:44:17.675Z,27.50
2019-04-30T12:46:21.896Z,26.84
2019-04-30T12:47:22.148Z,26.92
2019-04-30T12:49:26.359Z,27.21
2019-04-30T12:50:26.614Z,26.58
2019-04-30T12:52:30.796Z,26.62
2019-04-30T12:53:31.052Z,26.47
2019-04-30T12:55:35.262Z,26.52
2019-04-30T12:56:35.518Z,26.17
2019-04-30T12:58:39.701Z,26.17
2019-04-30T12:59:39.954Z,26.67
2019-04-30T13:01:34.207Z,27.25
2019-04-30T13:02:33.337Z,27.78
2019-04-30T13:04:39.407Z,28.34
2019-04-30T13:05:39.599Z,27.46
2019-04-30T13:07:42.452Z,27.79
2019-04-30T13:08:42.705Z,27.07
2019-04-30T13:10:46.949Z,26.91
2019-04-30T13:11:47.288Z,26.84
2019-04-30T13:13:51.303Z,27.04
2019-04-30T13:14:54.552Z,26.29
2019-04-30T13:16:55.341Z,26.50
2019-04-30T13:17:55.613Z,26.21
2019-04-30T13:19:59.821Z,26.75
2019-04-30T13:21:00.187Z,26.80
2019-04-30T13:23:04.258Z,26.69
2019-04-30T13:24:04.512Z,26.72
2019-04-30T13:26:09.021Z,27.37
2019-04-30T13:27:09.491Z,27.32
2019-04-30T13:29:13.154Z,27.47
2019-04-30T13:30:13.407Z,27.51
2019-04-30T13:32:08.532Z,27.29
2019-04-30T13:33:06.811Z,25.75
2019-04-30T13:35:12.021Z,24.12
2019-04-30T13:36:12.274Z,24.49
2019-04-30T13:38:16.454Z,26.13
2019-04-30T13:39:16.704Z,26.36
2019-04-30T13:41:20.911Z,26.54
2019-04-30T13:42:21.169Z,26.87
2019-04-30T13:44:25.348Z,26.33
2019-04-30T13:45:25.601Z,25.42
2019-04-30T13:47:29.805Z,24.83
2019-04-30T13:48:30.073Z,25.23
2019-04-30T13:50:35.303Z,25.52
2019-04-30T13:51:35.553Z,25.72
2019-04-30T13:53:39.805Z,25.00
2019-04-30T13:54:40.064Z,24.93
2019-04-30T13:56:44.408Z,24.90
2019-04-30T13:57:44.829Z,24.96
2019-04-30T13:59:50.827Z,24.30
2019-04-30T14:00:49.522Z,24.12
2019-04-30T14:02:53.558Z,23.66
2019-04-30T14:03:53.918Z,24.03
2019-04-30T14:05:59.400Z,23.85
2019-04-30T14:06:58.648Z,23.40
2019-04-30T14:09:02.839Z,22.91
2019-04-30T14:10:03.092Z,22.70
2019-04-30T14:11:56.225Z,22.94
2019-04-30T14:12:56.480Z,23.38
2019-04-30T14:15:00.656Z,23.36
2019-04-30T14:16:00.915Z,23.28
2019-04-30T14:18:05.117Z,22.72
2019-04-30T14:19:05.366Z,22.61
2019-04-30T14:21:09.564Z,23.66
2019-04-30T14:22:09.822Z,24.30
2019-04-30T14:24:13.998Z,23.75
2019-04-30T14:25:14.252Z,23.20
2019-04-30T14:27:18.453Z,23.09
2019-04-30T14:28:19.119Z,23.09
2019-04-30T14:30:22.886Z,23.00
2019-04-30T14:31:23.138Z,22.92
2019-04-30T14:33:29.237Z,23.36
2019-04-30T14:34:28.579Z,22.92
2019-04-30T14:36:31.794Z,22.39
2019-04-30T14:37:32.044Z,22.92
2019-04-30T14:39:36.391Z,23.04
2019-04-30T14:40:36.990Z,23.02
2019-04-30T14:42:41.043Z,24.12
2019-04-30T14:43:42.706Z,24.30
2019-04-30T14:45:45.566Z,24.28
2019-04-30T14:46:45.430Z,24.37
2019-04-30T14:48:50.977Z,24.78
2019-04-30T14:50:01.249Z,24.61
2019-04-30T14:51:42.941Z,24.39
2019-04-30T14:52:43.191Z,24.12
2019-04-30T14:54:50.168Z,23.80
2019-04-30T14:55:49.435Z,23.70
2019-04-30T14:57:51.825Z,23.42
2019-04-30T14:58:52.071Z,23.42
2019-04-30T15:00:56.246Z,23.47
2019-04-30T15:01:56.496Z,23.32
2019-04-30T15:04:00.700Z,22.77
2019-04-30T15:05:00.951Z,22.73
2019-04-30T15:07:06.163Z,23.01
2019-04-30T15:08:08.485Z,23.38
2019-04-30T15:10:10.591Z,23.23
2019-04-30T15:11:10.841Z,23.02
2019-04-30T15:13:15.046Z,23.23
2019-04-30T15:14:15.296Z,22.73
2019-04-30T15:16:19.478Z,22.39
2019-04-30T15:17:19.731Z,22.62
2019-04-30T15:19:23.931Z,22.40
2019-04-30T15:20:24.179Z,22.17
2019-04-30T15:22:29.056Z,22.39
2019-04-30T15:23:28.628Z,22.68
2019-04-30T15:25:34.515Z,22.77
2019-04-30T15:26:33.064Z,22.68
2019-04-30T15:28:39.286Z,22.91
2019-04-30T15:29:39.192Z,22.95
2019-04-30T15:31:30.630Z,23.12
2019-04-30T15:32:30.885Z,23.17
2019-04-30T15:34:35.062Z,23.04
2019-04-30T15:35:35.311Z,22.76
2019-04-30T15:37:39.510Z,22.31
2019-04-30T15:38:39.762Z,22.40
2019-04-30T15:40:43.937Z,22.47
2019-04-30T15:41:44.190Z,22.42
2019-04-30T15:43:48.391Z,21.94
2019-04-30T15:44:49.693Z,22.02
2019-04-30T15:46:52.846Z,22.17
2019-04-30T15:47:53.096Z,22.39
2019-04-30T15:49:57.272Z,22.17
2019-04-30T15:50:59.029Z,22.24
2019-04-30T15:53:01.718Z,22.54
2019-04-30T15:54:01.972Z,22.77
2019-04-30T15:56:06.146Z,22.36
2019-04-30T15:57:06.398Z,22.45
2019-04-30T15:59:11.606Z,22.30
2019-04-30T16:00:11.855Z,22.15
2019-04-30T16:02:05.000Z,22.20
2019-04-30T16:03:05.236Z,22.15
2019-04-30T16:05:09.408Z,22.14
2019-04-30T16:06:10.468Z,21.82
2019-04-30T16:08:13.854Z,21.90
2019-04-30T16:09:14.105Z,21.68
2019-04-30T16:11:19.452Z,21.46
2019-04-30T16:12:20.210Z,21.46
2019-04-30T16:14:22.724Z,21.56
2019-04-30T16:15:22.976Z,21.42
2019-04-30T16:17:29.177Z,21.47
2019-04-30T16:18:30.184Z,21.46
2019-04-30T16:20:32.593Z,21.49
2019-04-30T16:21:32.844Z,21.58
2019-04-30T16:23:38.630Z,21.34
2019-04-30T16:24:38.662Z,21.40
2019-04-30T16:26:49.490Z,21.25
2019-04-30T16:27:41.712Z,21.04
2019-04-30T16:29:46.919Z,20.67
2019-04-30T16:30:47.453Z,20.87
2019-04-30T16:32:51.367Z,20.67
2019-04-30T16:33:51.617Z,20.69
2019-04-30T16:35:55.789Z,20.43
2019-04-30T16:36:56.041Z,20.54
2019-04-30T16:39:00.242Z,20.26
2019-04-30T16:40:00.488Z,20.24
2019-04-30T16:41:53.594Z,20.20
2019-04-30T16:42:53.845Z,20.24
2019-04-30T16:45:00.541Z,20.13
2019-04-30T16:45:58.882Z,20.17
2019-04-30T16:48:02.492Z,19.71
2019-04-30T16:49:02.742Z,19.33
2019-04-30T16:51:09.110Z,18.72
2019-04-30T16:52:09.193Z,18.47
2019-04-30T16:54:11.362Z,18.08
2019-04-30T16:55:11.611Z,18.08
2019-04-30T16:57:15.783Z,17.86
2019-04-30T16:58:16.044Z,17.84
2019-04-30T17:00:20.274Z,17.86
2019-04-30T17:01:20.474Z,17.95
2019-04-30T17:03:25.718Z,17.87
2019-04-30T17:04:25.973Z,18.03
2019-04-30T17:06:30.144Z,17.89
2019-04-30T17:07:30.442Z,18.03
2019-04-30T17:09:34.638Z,17.86
2019-04-30T17:10:34.889Z,17.87
2019-04-30T17:12:39.064Z,17.90
2019-04-30T17:13:39.296Z,17.75
2019-04-30T17:15:43.484Z,17.74
2019-04-30T17:16:43.840Z,17.79
2019-04-30T17:18:49.987Z,17.74
2019-04-30T17:19:49.204Z,17.72
2019-04-30T17:21:41.370Z,17.64
2019-04-30T17:22:41.619Z,17.71
2019-04-30T17:24:45.823Z,17.43
2019-04-30T17:25:46.062Z,17.48
2019-04-30T17:27:50.230Z,17.28
2019-04-30T17:28:50.499Z,17.21
2019-04-30T17:30:54.666Z,17.07
2019-04-30T17:31:54.905Z,17.01
2019-04-30T17:33:59.595Z,16.85
2019-04-30T17:34:59.834Z,16.85
2019-04-30T17:37:04.047Z,16.57
2019-04-30T17:38:04.247Z,16.60
2019-04-30T17:40:09.394Z,16.52
2019-04-30T17:41:09.168Z,16.49
2019-04-30T17:43:14.346Z,16.39
2019-04-30T17:44:14.595Z,16.34
2019-04-30T17:46:20.225Z,16.34
2019-04-30T17:47:19.030Z,16.27
2019-04-30T17:49:23.215Z,16.20
2019-04-30T17:50:23.467Z,16.11
2019-04-30T17:52:29.677Z,15.93
2019-04-30T17:53:28.766Z,15.87
2019-04-30T17:55:32.079Z,15.90
2019-04-30T17:56:32.307Z,15.89
2019-04-30T17:58:36.962Z,15.74
2019-04-30T17:59:37.204Z,15.76
2019-04-30T18:01:30.835Z,15.67
2019-04-30T18:02:31.081Z,15.59
2019-04-30T18:04:35.263Z,15.27
2019-04-30T18:05:35.514Z,15.34
2019-04-30T18:07:39.675Z,15.21
2019-04-30T18:08:39.918Z,15.19
2019-04-30T18:10:44.137Z,15.06
2019-04-30T18:11:44.343Z,15.01
2019-04-30T18:13:50.596Z,14.80
2019-04-30T18:14:49.517Z,14.64
2019-04-30T18:16:52.940Z,14.58
2019-04-30T18:17:53.227Z,14.43
2019-04-30T18:19:57.933Z,14.28
2019-04-30T18:20:59.369Z,14.17
2019-04-30T18:23:02.261Z,14.04
2019-04-30T18:24:02.506Z,13.92
2019-04-30T18:26:06.692Z,13.82
2019-04-30T18:27:06.943Z,13.71
2019-04-30T18:29:11.104Z,13.60
2019-04-30T18:30:11.359Z,13.54
2019-04-30T18:32:04.470Z,13.46
2019-04-30T18:33:04.714Z,13.44
2019-04-30T18:35:08.875Z,13.39
2019-04-30T18:36:09.573Z,13.38
2019-04-30T18:38:13.303Z,13.19
2019-04-30T18:39:13.554Z,13.14
2019-04-30T18:41:19.353Z,13.03
2019-04-30T18:42:19.348Z,12.93
2019-04-30T18:44:22.165Z,12.96
2019-04-30T18:45:22.431Z,12.89
2019-04-30T18:47:27.107Z,12.82
2019-04-30T18:48:29.380Z,12.75
2019-04-30T18:50:31.535Z,12.72
2019-04-30T18:51:38.918Z,12.67
2019-04-30T18:53:36.013Z,12.42
2019-04-30T18:54:36.220Z,12.39
2019-04-30T18:56:40.606Z,12.41
2019-04-30T18:57:40.837Z,12.49
2019-04-30T18:59:45.511Z,12.62
2019-04-30T19:00:45.751Z,12.56
2019-04-30T19:02:50.419Z,12.53
2019-04-30T19:03:50.670Z,12.49
2019-04-30T19:05:54.855Z,12.45
2019-04-30T19:06:55.097Z,12.39
2019-04-30T19:09:00.294Z,12.20
2019-04-30T19:09:59.507Z,12.09
2019-04-30T19:11:52.680Z,12.04
2019-04-30T19:12:52.926Z,11.88
2019-04-30T19:14:59.047Z,11.80
2019-04-30T19:16:21.836Z,11.70
2019-04-30T19:18:01.630Z,11.57
2019-04-30T19:19:01.799Z,11.54
2019-04-30T19:21:05.986Z,11.37
2019-04-30T19:22:06.204Z,11.22
2019-04-30T19:24:10.426Z,11.11
2019-04-30T19:25:10.684Z,10.94
2019-04-30T19:27:14.981Z,10.82
2019-04-30T19:28:15.243Z,10.85
2019-04-30T19:30:20.373Z,10.85
2019-04-30T19:31:20.609Z,10.74
2019-04-30T19:33:24.843Z,10.79
2019-04-30T19:34:25.053Z,10.81
2019-04-30T19:36:37.289Z,10.70
2019-04-30T19:37:30.116Z,10.67
2019-04-30T19:39:34.257Z,10.71
2019-04-30T19:40:34.488Z,10.99
2019-04-30T19:42:39.525Z,10.92
2019-04-30T19:43:39.204Z,10.88
2019-04-30T19:45:43.083Z,10.76
2019-04-30T19:46:43.322Z,10.74
2019-04-30T19:48:50.506Z,10.78
2019-04-30T19:49:48.857Z,10.56
2019-04-30T19:51:41.398Z,10.47
2019-04-30T19:52:41.623Z,10.44
2019-04-30T19:54:45.906Z,10.51
2019-04-30T19:55:46.097Z,10.42